Time;durP1;ratioP1;P1;durP2;ratioP2;P2;SDS_P1;SDS_P2;PMS_P1;PMS_P2;Temp;Humidity;BMP_temperature;BMP_pressure;BME280_temperature;BME280_humidity;BME280_pressure;Samples;Min_cycle;Max_cycle;Signal;HPM_P1;HPM_P2
2021/05/15 00:02:12;;;;;;;10.00;6.83;;;;;;;12.38;73.99;99235.16;1820217;78;21039;-80
2021/05/15 00:04:39;;;;;;;15.20;7.17;;;;;;;12.37;73.97;99234.28;1786144;80;21574;-77
2021/05/15 00:07:06;;;;;;;10.82;6.58;;;;;;;12.34;73.85;99230.51;1787601;80;21852;-77
2021/05/15 00:09:33;;;;;;;15.60;7.35;;;;;;;12.32;73.60;99229.74;1785738;80;21080;-79
2021/05/15 00:12:03;;;;;;;11.22;7.15;;;;;;;12.33;73.50;99232.78;1787504;80;21079;-79
2021/05/15 00:14:31;;;;;;;12.65;6.53;;;;;;;12.33;73.52;99240.70;1790955;79;26061;-79
2021/05/15 00:16:59;;;;;;;11.05;5.95;;;;;;;12.33;73.56;99239.37;1796384;79;21137;-81
2021/05/15 00:19:28;;;;;;;12.93;6.20;;;;;;;12.34;74.01;99234.47;1796848;79;21114;-81
2021/05/15 00:21:58;;;;;;;12.33;6.87;;;;;;;12.34;74.27;99233.15;1796793;79;21124;-79
2021/05/15 00:24:25;;;;;;;11.93;6.87;;;;;;;12.37;74.40;99228.16;1829298;78;21082;-79
2021/05/15 00:26:52;;;;;;;11.10;6.55;;;;;;;12.35;74.13;99226.94;1794685;79;21078;-79
2021/05/15 00:29:19;;;;;;;11.15;6.83;;;;;;;12.36;74.63;99233.06;1796360;79;21156;-77
2021/05/15 00:31:46;;;;;;;12.30;7.58;;;;;;;12.37;75.34;99235.59;1794551;79;21584;-79
2021/05/15 00:34:13;;;;;;;11.15;6.72;;;;;;;12.37;75.69;99232.95;1796460;79;21079;-79
2021/05/15 00:36:40;;;;;;;12.40;6.58;;;;;;;12.40;76.06;99233.27;1794782;79;21201;-78
2021/05/15 00:39:08;;;;;;;12.35;6.72;;;;;;;12.44;76.12;99233.92;1796259;79;21191;-78
2021/05/15 00:41:37;;;;;;;10.88;6.12;;;;;;;12.47;76.26;99233.73;1797967;79;21098;-76
2021/05/15 00:44:17;;;;;;;9.55;6.35;;;;;;;12.51;76.31;99233.94;1831176;78;21035;-78
2021/05/15 00:46:45;;;;;;;8.55;5.47;;;;;;;12.54;76.24;99237.73;1751611;81;21143;-79
2021/05/15 00:49:13;;;;;;;10.78;6.10;;;;;;;12.55;76.53;99241.59;1776514;80;21027;-77
2021/05/15 00:51:41;;;;;;;8.68;5.50;;;;;;;12.57;76.58;99243.67;1752279;80;21067;-77
2021/05/15 00:54:15;;;;;;;8.88;5.37;;;;;;;12.61;76.84;99235.11;1776364;80;21067;-78
2021/05/15 00:56:41;;;;;;;10.25;5.40;;;;;;;12.65;76.88;99235.28;1776075;80;21926;-77
2021/05/15 00:59:08;;;;;;;7.03;4.92;;;;;;;12.67;77.04;99238.69;1777884;80;21097;-78
2021/05/15 01:01:35;;;;;;;8.50;5.08;;;;;;;12.69;76.96;99239.45;1776273;79;21143;-80
2021/05/15 01:04:04;;;;;;;7.42;4.67;;;;;;;12.72;77.28;99236.64;1796668;79;21082;-79
2021/05/15 01:06:32;;;;;;;7.47;4.83;;;;;;;12.73;77.59;99238.33;1795976;79;22071;-79
2021/05/15 01:08:59;;;;;;;11.05;5.25;;;;;;;12.75;77.51;99232.96;1764886;81;21623;-78
2021/05/15 01:11:26;;;;;;;7.05;5.17;;;;;;;12.76;77.75;99230.69;1796097;79;21117;-80
2021/05/15 01:14:00;;;;;;;8.23;5.12;;;;;;;12.75;77.82;99236.45;1764861;81;21229;-76
2021/05/15 01:16:27;;;;;;;5.87;4.60;;;;;;;12.76;77.76;99235.97;1749986;81;21109;-78
2021/05/15 01:18:54;;;;;;;8.95;5.28;;;;;;;12.74;77.57;99242.66;1757331;80;21068;-77
2021/05/15 01:21:22;;;;;;;8.75;4.95;;;;;;;12.73;77.62;99243.61;1757647;80;21092;-79
2021/05/15 01:23:48;;;;;;;11.12;5.72;;;;;;;12.72;77.92;99247.21;1757485;80;21658;-78
2021/05/15 01:26:22;;;;;;;11.12;5.60;;;;;;;12.72;77.99;99241.92;1757500;80;21088;-79
2021/05/15 01:28:54;;;;;;;7.62;5.60;;;;;;;12.72;77.95;99234.45;1757768;81;21078;-78
2021/05/15 01:31:21;;;;;;;7.60;5.25;;;;;;;12.70;78.08;99237.64;1757586;80;21150;-78
2021/05/15 01:33:48;;;;;;;10.53;6.25;;;;;;;12.72;78.22;99241.05;1757528;80;22281;-77
2021/05/15 01:36:14;;;;;;;11.63;6.87;;;;;;;12.72;78.12;99244.57;1757372;80;21087;-78
2021/05/15 01:38:41;;;;;;;9.23;6.28;;;;;;;12.72;77.99;99239.28;1757496;80;21034;-78
2021/05/15 01:41:13;;;;;;;7.58;5.50;;;;;;;12.74;77.82;99244.45;1757767;80;21070;-79
2021/05/15 01:43:41;;;;;;;8.48;5.70;;;;;;;12.73;77.96;99243.61;1757714;81;21043;-77
2021/05/15 01:46:10;;;;;;;10.95;5.90;;;;;;;12.74;77.91;99243.98;1757792;81;21811;-76
2021/05/15 01:48:37;;;;;;;14.07;6.20;;;;;;;12.75;78.05;99254.94;1757668;80;21170;-76
2021/05/15 01:51:10;;;;;;;8.48;5.78;;;;;;;12.76;78.25;99251.34;1757336;80;21071;-76
2021/05/15 01:53:44;;;;;;;9.35;6.55;;;;;;;12.75;78.72;99251.45;1771783;79;21209;-76
2021/05/15 01:56:18;;;;;;;11.10;5.62;;;;;;;12.73;78.73;99254.66;1757049;80;21106;-78
2021/05/15 01:58:45;;;;;;;9.93;6.28;;;;;;;12.71;78.66;99250.77;1756836;80;21715;-79
2021/05/15 02:01:12;;;;;;;11.38;6.67;;;;;;;12.71;78.45;99250.77;1757265;80;21149;-77
2021/05/15 02:03:41;;;;;;;10.75;6.55;;;;;;;12.70;78.66;99246.45;1757324;80;21091;-77
2021/05/15 02:06:08;;;;;;;9.03;6.53;;;;;;;12.70;78.63;99242.93;1757526;80;21102;-77
2021/05/15 02:08:35;;;;;;;10.93;6.47;;;;;;;12.71;78.80;99248.61;1757299;80;21154;-77
2021/05/15 02:11:03;;;;;;;12.63;6.80;;;;;;;12.71;78.92;99249.45;1757536;80;21752;-75
2021/05/15 02:13:30;;;;;;;9.90;5.83;;;;;;;12.71;79.01;99249.45;1757416;80;21106;-80
2021/05/15 02:16:00;;;;;;;10.80;6.50;;;;;;;12.69;79.04;99251.33;1783603;78;21054;-77
2021/05/15 02:18:28;;;;;;;10.58;6.37;;;;;;;12.69;79.32;99257.94;1796274;78;21189;-77
2021/05/15 02:20:55;;;;;;;10.40;7.17;;;;;;;12.67;79.59;99262.45;1796123;78;21703;-77
2021/05/15 02:23:22;;;;;;;11.75;6.42;;;;;;;12.65;79.62;99257.73;1796230;78;21228;-77
2021/05/15 02:25:49;;;;;;;10.28;7.62;;;;;;;12.66;79.57;99264.73;1796330;79;21116;-76
2021/05/15 02:28:16;;;;;;;14.78;6.87;;;;;;;12.66;79.96;99263.41;1822393;78;21082;-76
2021/05/15 02:30:44;;;;;;;13.38;7.65;;;;;;;12.65;80.12;99264.34;1826452;78;21340;-77
2021/05/15 02:33:13;;;;;;;11.93;7.55;;;;;;;12.66;80.06;99270.50;1826238;78;21604;-77
2021/05/15 02:35:40;;;;;;;13.68;7.92;;;;;;;12.65;80.29;99268.30;1826076;78;21107;-78
2021/05/15 02:38:12;;;;;;;14.07;8.33;;;;;;;12.64;80.53;99263.97;1826427;78;21486;-76
2021/05/15 02:40:39;;;;;;;15.98;8.60;;;;;;;12.65;80.68;99269.63;1826794;78;21027;-76
2021/05/15 02:43:06;;;;;;;17.80;8.15;;;;;;;12.56;80.57;99258.28;1826751;78;21066;-76
2021/05/15 02:45:34;;;;;;;10.93;7.12;;;;;;;12.63;80.60;99272.85;1827987;78;21153;-75
2021/05/15 02:48:01;;;;;;;10.80;7.37;;;;;;;12.62;80.75;99276.41;1827914;78;21011;-76
2021/05/15 02:50:28;;;;;;;13.15;7.50;;;;;;;12.62;80.71;99271.13;1827951;78;21692;-77
2021/05/15 02:52:56;;;;;;;13.18;7.78;;;;;;;12.62;80.75;99280.38;1832378;75;20995;-78
2021/05/15 02:55:25;;;;;;;10.85;6.78;;;;;;;12.62;80.70;99281.70;1831061;75;21444;-77
2021/05/15 02:57:54;;;;;;;12.77;7.10;;;;;;;12.64;80.82;99282.46;1827214;78;21106;-76
2021/05/15 03:00:24;;;;;;;15.85;8.00;;;;;;;12.65;80.71;99292.08;1827183;78;21090;-77
2021/05/15 03:02:51;;;;;;;14.53;7.35;;;;;;;12.66;80.89;99299.08;1805935;78;21085;-76
2021/05/15 03:05:22;;;;;;;11.97;7.42;;;;;;;12.66;80.98;99294.27;1826224;78;21104;-79
2021/05/15 03:07:49;;;;;;;13.35;8.80;;;;;;;12.69;81.10;99294.92;1796077;78;21030;-76
2021/05/15 03:10:17;;;;;;;9.85;6.78;;;;;;;12.71;81.07;99300.97;1796352;79;21094;-76
2021/05/15 03:12:45;;;;;;;12.75;8.08;;;;;;;12.74;81.11;99302.09;1828819;78;21050;-76
2021/05/15 03:15:13;;;;;;;15.90;8.80;;;;;;;12.77;81.13;99297.98;1790309;79;22196;-77
2021/05/15 03:17:43;;;;;;;15.50;9.35;;;;;;;12.83;81.13;99302.03;1777168;80;21135;-75
2021/05/15 03:20:16;;;;;;;13.40;9.25;;;;;;;12.86;80.64;99305.83;1789786;80;21015;-78
2021/05/15 03:22:47;;;;;;;16.23;8.75;;;;;;;12.90;80.68;99308.64;1789365;80;21152;-81
2021/05/15 03:25:32;;;;;;;15.38;9.50;;;;;;;12.95;80.49;99306.60;1778111;80;21004;-82
2021/05/15 03:29:15;;;;;;;17.48;9.45;;;;;;;13.05;80.75;99320.11;1770150;79;22658;-76
2021/05/15 03:31:42;;;;;;;16.52;9.60;;;;;;;13.01;80.50;99315.47;1744121;82;21016;-76
2021/05/15 03:34:09;;;;;;;17.90;9.73;;;;;;;13.04;80.33;99320.19;1744460;82;21150;-75
2021/05/15 03:36:36;;;;;;;17.20;10.88;;;;;;;13.08;80.19;99329.64;1744208;82;21114;-78
2021/05/15 03:39:04;;;;;;;15.83;9.18;;;;;;;13.06;80.16;99323.59;1744549;82;21047;-76
2021/05/15 03:41:31;;;;;;;18.17;9.68;;;;;;;13.05;80.01;99328.04;1744517;82;21119;-78
2021/05/15 03:43:58;;;;;;;12.98;9.05;;;;;;;13.05;80.21;99322.75;1744749;82;21087;-76
2021/05/15 03:46:25;;;;;;;12.37;9.25;;;;;;;13.11;80.29;99327.68;1723740;82;21140;-78
2021/05/15 03:48:53;;;;;;;15.88;8.95;;;;;;;13.28;79.52;99325.84;1672828;85;21364;-78
2021/05/15 03:51:20;;;;;;;14.98;9.55;;;;;;;13.39;79.30;99328.68;1695593;84;21135;-77
2021/05/15 03:53:48;;;;;;;15.10;9.55;;;;;;;13.46;78.81;99339.25;1667754;85;21103;-77
2021/05/15 03:56:16;;;;;;;16.97;10.13;;;;;;;13.43;78.62;99337.66;1696849;84;21205;-77
2021/05/15 03:58:44;;;;;;;14.80;9.18;;;;;;;13.43;78.89;99338.10;1667722;85;21113;-78
2021/05/15 04:01:12;;;;;;;13.90;10.23;;;;;;;13.45;79.09;99342.83;1667537;85;21578;-70
2021/05/15 04:03:39;;;;;;;16.45;10.63;;;;;;;13.50;78.90;99342.06;1696850;84;21731;-69
2021/05/15 04:06:06;;;;;;;11.12;8.43;;;;;;;13.54;78.83;99336.97;1700390;84;21150;-68
2021/05/15 04:08:33;;;;;;;13.68;9.18;;;;;;;13.66;78.72;99333.19;1695422;83;21146;-70
2021/05/15 04:10:59;;;;;;;17.67;8.25;;;;;;;13.81;78.34;99332.23;1692134;84;21798;-70
2021/05/15 04:13:43;;;;;;;14.60;9.25;;;;;;;13.96;77.91;99339.19;1691760;84;21119;-69
2021/05/15 04:16:10;;;;;;;15.95;9.75;;;;;;;14.13;77.31;99341.26;1696574;84;21135;-69
2021/05/15 04:18:32;;;;;;;15.23;8.58;;;;;;;14.32;76.15;99347.05;1693784;84;21092;-74
2021/05/15 04:20:59;;;;;;;13.50;9.08;;;;;;;14.42;75.67;99349.49;1701504;84;21118;-73
2021/05/15 04:23:26;;;;;;;15.23;9.33;;;;;;;14.44;75.24;99348.05;1699071;84;21214;-70
2021/05/15 04:25:54;;;;;;;12.37;8.70;;;;;;;14.44;75.36;99350.21;1697790;84;21652;-71
2021/05/15 04:28:21;;;;;;;13.08;8.28;;;;;;;14.44;75.31;99351.54;1687998;84;21052;-72
2021/05/15 04:30:48;;;;;;;12.88;8.13;;;;;;;14.45;75.24;99353.25;1677815;85;21124;-71
2021/05/15 04:33:14;;;;;;;12.88;7.80;;;;;;;14.47;75.18;99351.36;1678394;84;21100;-69
2021/05/15 04:35:42;;;;;;;11.93;8.30;;;;;;;14.49;75.01;99352.56;1676583;84;21196;-71
2021/05/15 04:38:09;;;;;;;13.90;8.55;;;;;;;14.52;75.10;99356.36;1685697;83;21123;-72
2021/05/15 04:40:35;;;;;;;14.20;7.97;;;;;;;14.53;74.84;99358.04;1684377;83;21132;-73
2021/05/15 04:43:02;;;;;;;11.97;7.47;;;;;;;14.52;74.82;99356.84;1673526;83;21126;-74
2021/05/15 04:45:31;;;;;;;15.38;8.05;;;;;;;14.50;75.05;99353.44;1691019;83;21135;-74
2021/05/15 04:47:59;;;;;;;19.00;6.85;;;;;;;14.53;75.12;99359.36;1695656;82;21244;-74
2021/05/15 04:50:26;;;;;;;14.15;7.03;;;;;;;14.61;75.09;99361.56;1694223;84;21162;-74
2021/05/15 04:52:53;;;;;;;14.53;7.70;;;;;;;14.68;74.82;99357.07;1694077;84;21107;-73
2021/05/15 04:55:20;;;;;;;19.02;7.80;;;;;;;14.78;74.68;99363.92;1688382;84;21110;-75
2021/05/15 04:57:47;;;;;;;17.42;8.33;;;;;;;14.86;74.59;99361.63;1689629;84;21597;-71
2021/05/15 05:00:16;;;;;;;17.30;8.20;;;;;;;14.94;73.69;99361.59;1678451;84;21197;-77
2021/05/15 05:02:43;;;;;;;21.05;9.18;;;;;;;14.95;73.51;99367.25;1666903;86;21468;-72
2021/05/15 05:05:10;;;;;;;25.27;9.50;;;;;;;14.98;73.67;99364.41;1687727;84;21098;-74
2021/05/15 05:07:39;;;;;;;16.55;8.40;;;;;;;15.02;73.33;99373.83;1694455;84;21880;-75
2021/05/15 05:10:09;;;;;;;17.48;8.90;;;;;;;15.06;72.91;99371.35;1694930;84;21632;-73
2021/05/15 05:12:36;;;;;;;19.42;8.35;;;;;;;15.07;72.74;99369.09;1695149;84;21682;-74
2021/05/15 05:15:05;;;;;;;22.87;8.73;;;;;;;15.12;72.48;99368.78;1695379;84;21096;-74
2021/05/15 05:17:32;;;;;;;23.15;9.78;;;;;;;15.17;72.33;99370.64;1691210;84;21119;-74
2021/05/15 05:19:59;;;;;;;26.37;9.65;;;;;;;15.20;72.21;99377.89;1694790;83;21432;-72
2021/05/15 05:22:26;;;;;;;18.35;9.15;;;;;;;15.25;72.10;99380.23;1695489;83;21087;-73
2021/05/15 05:24:53;;;;;;;26.82;9.80;;;;;;;15.27;72.12;99377.84;1710840;83;21176;-75
2021/05/15 05:27:22;;;;;;;17.30;8.53;;;;;;;15.34;72.07;99382.73;1694660;83;21723;-77
2021/05/15 05:29:49;;;;;;;18.75;8.38;;;;;;;15.36;72.24;99388.30;1728004;81;21060;-75
2021/05/15 05:32:15;;;;;;;28.12;14.38;;;;;;;15.38;72.11;99390.86;1724693;80;21729;-75
2021/05/15 05:34:42;;;;;;;33.88;12.98;;;;;;;15.43;72.43;99392.72;1729423;81;21071;-71
2021/05/15 05:37:11;;;;;;;21.12;10.50;;;;;;;15.51;72.26;99394.38;1710371;82;21663;-72
2021/05/15 05:39:40;;;;;;;30.50;13.55;;;;;;;15.56;71.74;99398.88;1673930;83;21686;-79
2021/05/15 05:42:07;;;;;;;23.90;8.60;;;;;;;15.59;71.25;99394.67;1664993;85;21204;-78
2021/05/15 05:44:34;;;;;;;19.07;7.67;;;;;;;15.61;70.90;99395.42;1681132;85;21238;-77
2021/05/15 05:47:01;;;;;;;24.70;9.23;;;;;;;15.69;70.99;99395.75;1681441;85;21276;-78
2021/05/15 05:49:28;;;;;;;21.68;8.25;;;;;;;15.81;71.07;99398.05;1681805;85;21159;-78
2021/05/15 05:51:55;;;;;;;15.43;6.95;;;;;;;15.93;70.16;99397.17;1722298;82;21146;-77
2021/05/15 05:54:22;;;;;;;20.60;7.97;;;;;;;16.07;69.54;99402.83;1728950;81;21060;-78
2021/05/15 05:56:50;;;;;;;13.70;7.47;;;;;;;16.23;69.04;99403.92;1675683;85;21142;-77
2021/05/15 05:59:17;;;;;;;19.52;7.42;;;;;;;16.39;67.99;99405.47;1724098;82;21889;-79
2021/05/15 06:01:44;;;;;;;14.23;7.00;;;;;;;16.47;67.28;99410.61;1717712;82;21151;-77
2021/05/15 06:04:10;;;;;;;18.42;7.17;;;;;;;16.54;66.83;99407.86;1721622;82;21075;-78
2021/05/15 06:06:38;;;;;;;27.32;8.40;;;;;;;16.68;66.49;99411.30;1724447;82;21772;-76
2021/05/15 06:09:05;;;;;;;39.98;10.30;;;;;;;16.92;66.05;99409.52;1730894;82;21645;-77
2021/05/15 06:11:32;;;;;;;33.08;10.95;;;;;;;17.23;65.08;99408.55;1731102;82;21646;-79
2021/05/15 06:13:59;;;;;;;37.10;14.33;;;;;;;17.58;64.00;99411.16;1724629;82;21637;-77
2021/05/15 06:16:26;;;;;;;38.67;11.12;;;;;;;17.93;63.59;99403.58;1714126;83;21155;-78
2021/05/15 06:18:54;;;;;;;40.10;13.93;;;;;;;18.33;61.40;99412.38;1715303;83;21059;-78
2021/05/15 06:21:22;;;;;;;47.95;16.30;;;;;;;18.92;60.12;99402.31;1722892;82;21142;-74
2021/05/15 06:23:49;;;;;;;36.03;11.70;;;;;;;19.45;58.68;99399.11;1727832;82;21095;-76
2021/05/15 06:26:16;;;;;;;33.92;10.03;;;;;;;20.10;57.38;99405.56;1725445;82;21148;-78
2021/05/15 06:28:43;;;;;;;37.48;9.80;;;;;;;20.88;54.03;99405.75;1725512;81;21074;-77
2021/05/15 06:31:13;;;;;;;24.65;8.88;;;;;;;21.13;53.11;99403.00;1726003;83;21081;-77
2021/05/15 06:33:40;;;;;;;28.42;7.50;;;;;;;21.36;51.01;99399.52;1724549;82;21141;-74
2021/05/15 06:36:07;;;;;;;26.07;7.12;;;;;;;21.61;49.72;99403.45;1727764;82;21572;-76
2021/05/15 06:38:34;;;;;;;21.52;5.80;;;;;;;22.02;47.35;99407.16;1722192;80;21117;-75
2021/05/15 06:41:02;;;;;;;19.42;5.50;;;;;;;22.30;47.61;99399.52;1724515;80;21265;-75
2021/05/15 06:43:29;;;;;;;17.32;5.05;;;;;;;22.66;45.95;99398.25;1736434;80;21075;-75
2021/05/15 06:45:56;;;;;;;14.87;4.83;;;;;;;22.87;44.66;99398.42;1723374;80;21141;-74
2021/05/15 06:48:23;;;;;;;17.42;4.67;;;;;;;22.79;44.13;99406.74;1730705;80;21197;-73
2021/05/15 06:50:51;;;;;;;16.77;4.67;;;;;;;22.59;45.08;99403.84;1720061;82;21602;-75
2021/05/15 06:53:18;;;;;;;9.25;3.15;;;;;;;22.44;46.05;99402.70;1690062;83;21632;-73
2021/05/15 06:55:45;;;;;;;7.40;2.65;;;;;;;22.44;45.70;99411.59;1725543;82;21087;-75
2021/05/15 06:58:14;;;;;;;5.45;3.00;;;;;;;22.17;45.25;99415.08;1727473;80;21125;-75
2021/05/15 07:00:41;;;;;;;15.55;4.67;;;;;;;21.88;46.22;99409.36;1731273;80;21052;-74
2021/05/15 07:03:08;;;;;;;20.68;5.25;;;;;;;21.51;47.55;99418.68;1736965;80;21131;-75
2021/05/15 07:05:35;;;;;;;32.20;5.90;;;;;;;21.12;47.76;99419.56;1739475;80;21028;-76
2021/05/15 07:08:02;;;;;;;17.07;4.55;;;;;;;20.83;49.09;99429.42;1726796;80;21143;-76
2021/05/15 07:10:30;;;;;;;18.30;5.75;;;;;;;20.58;49.64;99429.45;1713126;83;21238;-74
2021/05/15 07:12:58;;;;;;;15.45;4.85;;;;;;;20.30;50.33;99432.72;1674605;83;21600;-74
2021/05/15 07:15:25;;;;;;;11.18;5.30;;;;;;;20.19;50.90;99439.50;1746931;80;21142;-74
2021/05/15 07:17:52;;;;;;;14.20;5.17;;;;;;;20.12;51.68;99435.67;1714010;80;21177;-74
2021/05/15 07:20:19;;;;;;;10.23;3.52;;;;;;;20.14;51.73;99443.08;1721486;80;21049;-74
2021/05/15 07:22:46;;;;;;;9.53;4.67;;;;;;;20.19;50.90;99435.98;1745282;80;21259;-74
2021/05/15 07:25:12;;;;;;;17.92;4.87;;;;;;;20.17;50.91;99441.45;1716713;80;21576;-74
2021/05/15 07:27:39;;;;;;;11.20;3.85;;;;;;;20.14;51.45;99439.06;1718273;80;21103;-72
2021/05/15 07:30:07;;;;;;;15.93;4.30;;;;;;;20.29;50.66;99441.73;1751588;80;21748;-75
2021/05/15 07:32:34;;;;;;;8.95;3.98;;;;;;;20.50;50.30;99442.98;1738521;80;21079;-73
2021/05/15 07:35:01;;;;;;;8.33;3.50;;;;;;;20.52;50.44;99444.16;1742732;80;21159;-74
2021/05/15 07:37:28;;;;;;;11.70;3.60;;;;;;;20.37;50.55;99444.22;1719478;80;21055;-74
2021/05/15 07:39:55;;;;;;;6.67;3.67;;;;;;;20.26;50.91;99447.33;1719886;80;21602;-73
2021/05/15 07:42:22;;;;;;;5.70;3.87;;;;;;;20.24;51.47;99447.11;1701546;83;21198;-74
2021/05/15 07:44:49;;;;;;;8.23;3.95;;;;;;;20.15;51.76;99452.77;1702671;83;21042;-74
2021/05/15 07:47:18;;;;;;;8.15;4.10;;;;;;;20.03;51.78;99452.52;1726286;83;21089;-75
2021/05/15 07:49:45;;;;;;;7.58;4.40;;;;;;;19.99;52.80;99449.75;1709503;83;21041;-75
2021/05/15 07:52:12;;;;;;;12.70;7.62;;;;;;;19.99;52.85;99449.75;1701777;83;21105;-73
2021/05/15 07:54:39;;;;;;;11.10;6.42;;;;;;;20.30;53.13;99454.61;1696305;83;21639;-74
2021/05/15 07:57:06;;;;;;;8.60;4.95;;;;;;;20.89;51.96;99452.92;1715507;83;21203;-75
2021/05/15 07:59:33;;;;;;;8.40;4.53;;;;;;;21.62;49.97;99440.45;1708743;83;21103;-76
2021/05/15 08:02:00;;;;;;;8.35;3.80;;;;;;;22.27;47.04;99441.88;1689923;83;21099;-75
2021/05/15 08:04:27;;;;;;;8.20;3.92;;;;;;;22.68;45.53;99436.48;1656800;85;21159;-74
2021/05/15 08:06:55;;;;;;;6.10;3.67;;;;;;;22.69;45.43;99441.38;1662965;85;21150;-76
2021/05/15 08:09:22;;;;;;;6.33;3.50;;;;;;;22.71;45.08;99442.91;1637967;86;21185;-73
2021/05/15 08:11:49;;;;;;;7.58;2.80;;;;;;;22.66;45.12;99441.66;1654148;84;22591;-73
2021/05/15 08:14:17;;;;;;;7.70;3.30;;;;;;;22.75;45.27;99437.59;1653346;85;21435;-74
2021/05/15 08:16:46;;;;;;;7.58;3.10;;;;;;;22.81;45.06;99435.63;1651618;85;22261;-73
2021/05/15 08:19:13;;;;;;;17.20;3.40;;;;;;;22.96;44.79;99436.42;1651115;85;21111;-74
2021/05/15 08:21:41;;;;;;;6.67;2.77;;;;;;;23.09;43.60;99432.06;1665409;85;21643;-74
2021/05/15 08:24:09;;;;;;;20.97;3.20;;;;;;;23.25;43.57;99429.00;1646094;85;21123;-73
2021/05/15 08:26:37;;;;;;;5.45;2.50;;;;;;;23.35;42.93;99437.48;1641479;86;21102;-73
2021/05/15 08:29:07;;;;;;;9.48;2.75;;;;;;;23.12;43.26;99432.61;1668404;84;21192;-76
2021/05/15 08:31:33;;;;;;;10.60;3.42;;;;;;;22.97;43.01;99435.45;1664007;84;21115;-73
2021/05/15 08:34:00;;;;;;;9.30;3.00;;;;;;;22.97;43.58;99427.39;1635460;87;21144;-75
2021/05/15 08:36:27;;;;;;;21.20;3.83;;;;;;;22.83;43.36;99434.14;1661245;84;21233;-72
2021/05/15 08:38:56;;;;;;;9.10;3.30;;;;;;;22.66;43.31;99436.30;1629135;85;26653;-73
2021/05/15 08:41:23;;;;;;;11.45;3.90;;;;;;;22.58;43.93;99439.74;1618008;87;21505;-74
2021/05/15 08:43:50;;;;;;;13.58;5.47;;;;;;;22.50;43.79;99435.61;1628760;87;21684;-74
2021/05/15 08:46:18;;;;;;;10.53;3.40;;;;;;;22.45;44.95;99444.61;1662372;84;21110;-74
2021/05/15 08:48:45;;;;;;;9.63;3.20;;;;;;;22.50;45.26;99439.64;1635080;87;21659;-74
2021/05/15 08:51:12;;;;;;;9.30;3.58;;;;;;;22.54;44.78;99435.66;1663024;84;21618;-74
2021/05/15 08:53:39;;;;;;;4.95;2.30;;;;;;;22.53;44.72;99440.70;1652483;85;21515;-75
2021/05/15 08:56:14;;;;;;;6.60;2.33;;;;;;;22.55;44.41;99445.42;1652823;85;21136;-75
2021/05/15 08:58:42;;;;;;;7.78;2.62;;;;;;;22.58;43.87;99438.40;1648646;85;22131;-74
2021/05/15 09:01:14;;;;;;;5.17;2.20;;;;;;;22.59;43.66;99444.09;1648335;85;21129;-74
2021/05/15 09:03:42;;;;;;;4.05;1.87;;;;;;;22.58;43.33;99443.77;1653497;84;21122;-76
2021/05/15 09:06:09;;;;;;;8.48;2.15;;;;;;;22.66;43.30;99441.19;1615599;87;21251;-76
2021/05/15 09:08:37;;;;;;;3.85;1.85;;;;;;;22.83;42.79;99444.37;1644456;87;21260;-76
2021/05/15 09:11:04;;;;;;;8.03;2.42;;;;;;;22.92;41.39;99443.13;1644574;87;21677;-76
2021/05/15 09:13:31;;;;;;;6.95;2.40;;;;;;;22.73;43.29;99443.61;1643898;87;21171;-72
2021/05/15 09:16:03;;;;;;;7.50;3.65;;;;;;;22.57;43.09;99446.12;1647415;86;21279;-71
2021/05/15 09:18:36;;;;;;;9.20;3.02;;;;;;;22.41;43.83;99447.61;1650480;86;21145;-73
2021/05/15 09:21:05;;;;;;;10.40;4.17;;;;;;;22.32;44.90;99450.34;1651502;86;21889;-71
2021/05/15 09:23:37;;;;;;;6.58;3.20;;;;;;;22.25;44.85;99444.73;1670927;85;21096;-69
2021/05/15 09:26:09;;;;;;;9.75;4.92;;;;;;;22.19;45.70;99445.28;1651867;84;21122;-71
2021/05/15 09:28:41;;;;;;;7.25;3.80;;;;;;;22.26;45.93;99456.29;1635005;87;21173;-71
2021/05/15 09:31:21;;;;;;;3.90;2.45;;;;;;;22.31;47.85;99459.37;1662356;84;21305;-70
2021/05/15 09:33:53;;;;;;;5.28;2.75;;;;;;;22.19;49.48;99460.86;1661126;85;21122;-72
2021/05/15 09:36:35;;;;;;;8.48;2.83;;;;;;;21.91;51.07;99467.19;1660473;85;21654;-71
2021/05/15 09:39:10;;;;;;;11.80;4.62;;;;;;;21.47;55.31;99479.75;1647217;80;21179;-73
2021/05/15 09:41:45;;;;;;;12.73;5.00;;;;;;;20.95;58.51;99487.17;1616102;87;21680;-72
2021/05/15 09:44:17;;;;;;;14.25;6.03;;;;;;;20.47;60.49;99486.53;1619032;87;21678;-72
2021/05/15 09:46:46;;;;;;;11.50;4.90;;;;;;;20.20;63.21;99473.30;1630620;87;22315;-71
2021/05/15 09:49:13;;;;;;;12.95;6.90;;;;;;;20.14;64.36;99473.81;1631598;87;21098;-71
2021/05/15 09:51:50;;;;;;;9.65;4.35;;;;;;;20.24;65.28;99472.02;1602257;87;21626;-71
2021/05/15 09:54:33;;;;;;;6.95;3.15;;;;;;;20.44;66.86;99470.77;1623795;87;21042;-74
2021/05/15 09:57:09;;;;;;;4.92;2.60;;;;;;;20.68;65.06;99474.44;1589895;88;21193;-72
2021/05/15 09:59:39;;;;;;;6.47;2.50;;;;;;;20.91;62.27;99463.00;1586972;90;21653;-74
2021/05/15 10:02:12;;;;;;;11.45;3.65;;;;;;;21.15;59.04;99459.43;1593142;88;21126;-73
2021/05/15 10:04:44;;;;;;;5.97;2.87;;;;;;;21.33;58.17;99456.06;1587074;88;21145;-74
2021/05/15 10:07:25;;;;;;;5.75;3.20;;;;;;;21.56;57.19;99460.14;1588045;89;21637;-73
2021/05/15 10:09:51;;;;;;;4.83;2.37;;;;;;;21.73;55.78;99469.27;1589571;88;22296;-74
2021/05/15 10:12:18;;;;;;;7.28;2.98;;;;;;;22.02;55.82;99469.70;1588217;88;21283;-73
2021/05/15 10:14:46;;;;;;;8.73;3.92;;;;;;;22.34;55.11;99470.66;1562357;90;21177;-75
2021/05/15 10:17:12;;;;;;;6.08;3.22;;;;;;;22.65;54.16;99469.00;1601144;87;21168;-72
2021/05/15 10:19:41;;;;;;;7.65;3.47;;;;;;;23.08;52.96;99470.16;1601300;87;21654;-73
2021/05/15 10:22:08;;;;;;;9.35;3.52;;;;;;;23.36;50.61;99463.36;1603225;87;21118;-73
2021/05/15 10:24:36;;;;;;;5.60;3.30;;;;;;;23.44;48.37;99466.97;1606161;87;21211;-71
2021/05/15 10:27:11;;;;;;;4.70;2.60;;;;;;;23.48;49.22;99470.67;1607801;87;21109;-72
2021/05/15 10:29:48;;;;;;;6.12;2.33;;;;;;;23.47;49.44;99479.24;1606890;86;21124;-73
2021/05/15 10:32:21;;;;;;;5.30;2.60;;;;;;;23.15;48.86;99488.69;1628857;87;21186;-73
2021/05/15 10:35:01;;;;;;;5.28;2.20;;;;;;;22.86;49.72;99498.76;1630404;86;21134;-72
2021/05/15 10:37:31;;;;;;;6.57;2.47;;;;;;;22.55;50.63;99491.88;1640827;86;21107;-72
2021/05/15 10:39:58;;;;;;;4.12;2.55;;;;;;;22.31;51.63;99503.63;1622809;86;21260;-72
2021/05/15 10:42:32;;;;;;;6.17;2.70;;;;;;;22.19;52.22;99490.87;1635995;87;21099;-73
2021/05/15 10:45:02;;;;;;;8.83;3.72;;;;;;;22.06;52.80;99494.36;1633194;87;21134;-73
2021/05/15 10:47:44;;;;;;;4.70;2.72;;;;;;;21.95;52.71;99484.17;1631135;87;21154;-73
2021/05/15 10:50:21;;;;;;;3.70;2.77;;;;;;;21.97;53.20;99482.67;1620144;87;21161;-72
2021/05/15 10:52:50;;;;;;;7.25;2.08;;;;;;;22.02;53.06;99486.25;1618018;88;21157;-73
2021/05/15 10:55:32;;;;;;;2.57;1.67;;;;;;;22.13;52.63;99487.42;1633520;87;21114;-72
2021/05/15 10:58:12;;;;;;;;;;;;;;;22.33;51.92;99485.05;1621294;88;21227;-74
2021/05/15 11:00:40;;;;;;;2.55;2.00;;;;;;;22.54;50.51;99486.64;1614512;88;21716;-72
2021/05/15 11:03:07;;;;;;;3.60;2.02;;;;;;;22.68;49.49;99488.81;1619114;88;21126;-77
2021/05/15 11:05:47;;;;;;;6.30;2.35;;;;;;;23.02;48.07;99485.53;1619689;87;21095;-75
2021/05/15 11:08:26;;;;;;;4.67;2.30;;;;;;;23.44;46.30;99476.84;1618734;87;21608;-75
2021/05/15 11:10:53;;;;;;;7.85;2.70;;;;;;;23.90;46.24;99486.95;1611722;87;21123;-75
2021/05/15 11:13:21;;;;;;;6.03;2.55;;;;;;;24.28;44.98;99491.56;1618267;87;21652;-75
2021/05/15 11:15:49;;;;;;;6.20;2.35;;;;;;;24.38;44.30;99486.89;1617458;87;21167;-74
2021/05/15 11:18:29;;;;;;;7.50;2.85;;;;;;;24.37;44.55;99485.22;1614235;88;21185;-75
2021/05/15 11:20:59;;;;;;;2.92;1.80;;;;;;;24.40;43.63;99491.61;1604209;88;21405;-73
2021/05/15 11:23:27;;;;;;;2.52;1.77;;;;;;;24.40;41.25;99494.30;1558442;89;21143;-73
2021/05/15 11:25:58;;;;;;;3.22;1.90;;;;;;;24.25;41.82;99495.93;1592015;89;21870;-73
2021/05/15 11:28:27;;;;;;;2.98;1.57;;;;;;;24.02;41.78;99499.67;1594515;89;21153;-75
2021/05/15 11:30:54;;;;;;;3.17;1.90;;;;;;;23.58;42.21;99495.12;1589416;88;21610;-73
2021/05/15 11:33:23;;;;;;;2.08;1.55;;;;;;;23.11;43.34;99508.79;1614073;86;21146;-73
2021/05/15 11:35:52;;;;;;;3.70;1.92;;;;;;;22.83;44.49;99514.17;1614147;86;21750;-73
2021/05/15 11:38:26;;;;;;;4.97;1.82;;;;;;;22.67;45.50;99519.34;1621384;86;21099;-73